CST,Max TemperatureF,Mean TemperatureF,Min TemperatureF,Max Dew PointF,MeanDew PointF,Min DewpointF,Max Humidity, Mean Humidity, Min Humidity, Max Sea Level PressureIn, Mean Sea Level PressureIn, Min Sea Level PressureIn, Max VisibilityMiles, Mean VisibilityMiles, Min VisibilityMiles, Max Wind SpeedMPH, Mean Wind SpeedMPH, Max Gust SpeedMPH,PrecipitationIn, CloudCover, Events, WindDirDegrees
2014-1-1,-7,-20,-36,-18,-32,-42,83,71,59,30.43,30.40,30.37,10,10,10,4,0,,0.00,0,,335
2014-1-2,-5,-22,-38,-18,-32,-45,83,67,54,30.40,30.31,30.18,10,9,2,0,0,,0.00,0,,-1
2014-1-3,14,-9,-32,12,-5,-38,100,78,59,30.17,29.65,29.31,10,5,1,17,6,28,0.13,6,Snow,188
2014-1-4,15,0,-16,12,-3,-20,93,78,66,30.09,29.75,29.30,10,7,1,17,7,24,0.00,4,Snow,289
2014-1-5,-14,-22,-29,-22,-29,-36,83,69,53,30.20,30.15,30.09,10,10,7,12,6,21,0.00,0,,275
2014-1-6,-18,-25,-32,-27,-33,-38,76,69,52,30.07,29.95,29.87,10,10,3,15,8,22,0.00,1,,283
2014-1-7,-9,-17,-25,-17,-24,-33,84,73,59,30.10,29.95,29.86,10,10,5,13,8,20,0.00,3,,269
2014-1-8,0,-14,-29,-11,-23,-36,84,73,55,30.31,30.23,30.10,10,10,4,10,2,,0.00,1,,249
2014-1-9,17,-7,-31,10,-6,-38,85,69,56,30.27,29.95,29.77,10,10,7,17,7,29,0.00,3,,189
2014-1-10,24,20,15,23,18,12,100,92,86,29.74,29.58,29.40,10,6,2,13,9,21,0.00,8,Snow,189
2014-1-11,26,22,19,25,22,18,100,93,86,29.52,29.42,29.35,10,7,2,13,5,20,0.00,8,Snow,279
2014-1-12,33,26,19,28,24,19,100,91,74,29.49,29.32,29.21,10,9,3,13,6,20,0.02,5,Snow,203
2014-1-13,28,12,-5,27,12,-9,100,80,63,29.58,29.47,29.35,10,10,10,17,7,24,0.00,5,Snow,281
2014-1-14,12,0,-11,3,-3,-17,92,80,62,30.00,29.82,29.57,10,10,10,9,3,16,0.00,3,Snow,323
2014-1-15,12,-3,-18,9,-4,-22,92,81,67,29.99,29.67,29.18,10,8,0,17,7,29,0.02,4,Snow,215
2014-1-16,24,14,3,21,7,0,100,85,73,29.82,29.43,29.14,10,4,1,17,7,25,0.02,7,Snow,301
2014-1-17,3,-6,-16,0,-9,-22,92,81,72,29.95,29.87,29.73,10,10,3,10,5,18,0.00,2,Snow,327
2014-1-18,19,0,-20,18,-3,-26,93,75,53,29.81,29.68,29.38,10,9,2,15,2,21,0.00,2,Snow,241
2014-1-19,24,12,1,21,11,-4,93,82,68,29.69,29.46,29.32,10,10,2,15,8,21,0.00,8,Snow,325
2014-1-20,1,-8,-16,-4,-16,-24,84,69,42,30.31,30.06,29.70,10,10,4,13,5,18,0.00,1,Snow,334
2014-1-21,0,-14,-29,-6,-18,-36,85,73,60,30.31,30.11,29.82,10,8,2,8,4,,0.01,3,Snow,226
2014-1-22,-4,-9,-14,-8,-13,-20,85,76,65,30.37,30.02,29.79,10,8,3,17,8,25,0.00,2,Snow,319
2014-1-23,0,-16,-31,-11,-21,-38,84,71,59,30.52,30.29,29.13,10,10,10,17,5,29,0.00,1,,248
2014-1-24,24,12,0,21,8,-9,100,82,53,29.76,29.43,29.24,10,5,1,29,12,45,0.01,7,Snow,262
2014-1-25,3,-6,-16,-2,-14,-20,85,67,46,29.67,29.58,29.44,10,8,1,20,11,32,0.00,3,Snow,302
2014-1-26,1,-5,-13,-6,-12,-20,85,75,64,29.83,29.45,29.26,10,6,1,16,4,30,0.02,5,Snow,349
2014-1-27,-9,-17,-25,-20,-25,-33,77,67,54,30.13,30.05,29.84,10,9,2,15,11,24,0.00,0,,284
2014-1-28,-5,-15,-25,-13,-21,-31,83,72,59,30.11,29.93,29.78,10,10,4,18,9,30,0.00,3,,259
2014-1-29,19,2,-14,9,-6,-18,84,64,39,29.78,29.58,29.39,10,10,10,15,9,23,0.00,3,,222
2014-1-30,12,0,-13,7,-10,-18,79,64,47,29.83,29.61,29.45,10,10,10,15,9,21,0.00,1,,291
2014-1-31,3,-8,-20,-8,-16,-26,84,70,51,29.89,29.86,29.83,10,10,10,13,6,18,0.00,0,,227